Airfield :
LOGIN :

Register | Disclaimer

   EN    FR    IT 

 










Legend :    VFR   Marginal VFR   IFR   Intensive IFR   Very Intensive IFR
Visi :
Ceiling :
>= 8 km
>= 3000ft
5 to 8 km
1000 to 3000 ft
1500m to 5 km
500 to 1000 ft
800 to 1500m
200 to 500 ft
< 800m
< 200 ft
Symbols :   Thunderstorms  Fog  Heavy snow  Heavy precipitations  Wind > 20 kt
SIGMETs :     Misc.  Thunderstorms  Icing  Turbulence  Mountain Waves  Volcanic Ashes







- Airport Elevation : 14 ft
- IATA code : BRE


EDDW - Bremen Neuenland

CURRENT METAR :
  • 231620Z 28020KT 9999 -DZ FEW009 BKN014 BKN025 12/11 Q1014 TEMPO 28020G30KT 3500 DZ BKN008

EXPIRED METARs :
  • 231550Z 28017KT 6000 -DZ SCT009 BKN012 12/11 Q1014 TEMPO 28020G30KT 3500 DZ BKN008
  • 231520Z 29017KT 3500 -DZ BKN010 BKN014 12/11 Q1015 TEMPO 29020G30KT 2500 DZ BKN009
  • 231450Z 30016G27KT 4000 -DZ SCT009 BKN014 12/11 Q1015 REDZ TEMPO 30020G35KT 2500 DZ BKN009
  • 231420Z 28018KT 6000 -DZ SCT009 BKN014 12/11 Q1014 TEMPO 28020G35KT 4000 DZ
  • 231350Z 28019KT 9999 FEW009 BKN014 12/11 Q1015 TEMPO 28020G35KT 4000 DZ

TAF COR TAF EDDW
Valid from the 23 at 12:00 until the 24 at 12:00 UTC


231126Z 2312/2412 30015G25KT 9999 BKN014
PROB30
TEMPO 2312/2315 2500 -RADZ BKN008
TEMPO 2312/2320 28020G35KT
BECMG 2312/2315 BKN015
TEMPO 2315/2318 BKN014
PROB30
TEMPO 2318/2403 4500 -RA BKN008
TEMPO 2400/2408 31012KT
No reported NOTAMs for that airfield.



MET'MAP, your aeronautical weather chart ! - Copyright ORBIFLY December 2007 - Disclaimer

ORBIFLY MET'MAP TEAM :

Programming & Development : Alexandra Zaïnal
Concept & Development : Baudouin d'Aumeries
Co-Development & Prog : Marc-Olivier Méhu
Technical & hardware support : Manuel Goepfert

Contact : metmap@orbifly.com




SOURCES & CREDITS :

   NOAA